CheckWX is a tool to help pilots better visualize weather data.  It is not intended as a substitute for an official pre-flight weather briefing.

10:53:11 UTC

KBAZ METAR
New Braunfels Regional Airport
New Braunfels, Texas, USA
Current

24 mins ago

KBAZ 181029Z AUTO 16005KT 5SM BR OVC015 20/18 A2986 RMK AO2 T02000183
Observed
Feb-18 @ 10:29 UTC
Wind
  • 160° at 5 KTS
Visibility
5 SM
Flight Rules
MVFR
Conditions
Mist
Cloud Levels
  • Overcast at 1,500' AGL
Temperature
20°C / 68°F
Dewpoint
18°C / 64°F
Humidity
88%
Altimeter
29.86" Hg
Pressure
1011.22 hPa
Previous

1 hour ago

KBAZ 180951Z AUTO 17004KT 5SM BR OVC013 20/18 A2985 RMK AO2 SLP100 T02000183
Observed
Feb-18 @ 09:51 UTC
Wind
  • 170° at 4 KTS
Visibility
5 SM
Flight Rules
MVFR
Conditions
Mist
Cloud Levels
  • Overcast at 1,300' AGL
Temperature
20°C / 68°F
Dewpoint
18°C / 64°F
Humidity
88%
Altimeter
29.85" Hg
Pressure
1010.82 hPa
Previous

2 hours ago

KBAZ 180851Z AUTO 13004KT 5SM BR OVC011 19/18 A2985 RMK AO2 SLP101 T01940178 57005
Observed
Feb-18 @ 08:51 UTC
Wind
  • 130° at 4 KTS
Visibility
5 SM
Flight Rules
MVFR
Conditions
Mist
Cloud Levels
  • Overcast at 1,100' AGL
Temperature
19°C / 66°F
Dewpoint
18°C / 64°F
Humidity
94%
Altimeter
29.85" Hg
Pressure
1010.82 hPa